^^
Saratoga-Weather Station Historical Data
Daily Summary for March 02, 2021 Units:  Both    English   Metric
Daily Weekly Monthly Yearly Custom
  High: Low: Average:
Temperature: 61.9 °F /  16.6 °C 34.3 °F /  1.3 °C 45.5 °F /  7.5 °C
Dew Point: 41.9 °F /  5.5 °C 31.6 °F /  -0.2 °C 36.7 °F /  2.6 °C
Humidity: 93% 44% 73%
Wind Speed: 6mph /  9.7km/h - 0.6mph /  1km/h
Wind Gust: 7mph /  11.3km/h - -
Wind- - ESE
Pressure: 30.5 in /  1031.2 hPa 30.4 in /  1028.5 hPa -
Precipitation: 0 in /  0.0 mm    
Historical Graphs
 
 
Tabular Data for March 02, 2021
Time Temperature Dew Point Pressure Wind Wind Speed Wind Gust Humidity Rainfall Rate (Hourly) solar
00:03 39.4 °F /  4.1 °C 34.7 °F /  1.5 °C 30.4in /  1028.8hPa Calm     83% 0in /  0.0mm 0 W/m2
00:08 39.4 °F /  4.1 °C 34.7 °F /  1.5 °C 30.4in /  1028.8hPa SE 0.9mph /  1.4km/h 2mph /  3.2km/h 83% 0in /  0.0mm 0 W/m2
00:13 39.2 °F /  4 °C 34.5 °F /  1.4 °C 30.4in /  1028.8hPa Calm   1mph /  1.6km/h 83% 0in /  0.0mm 0 W/m2
00:18 39 °F /  3.9 °C 34.3 °F /  1.3 °C 30.4in /  1028.8hPa Calm   2mph /  3.2km/h 83% 0in /  0.0mm 0 W/m2
00:23 39 °F /  3.9 °C 34.3 °F /  1.3 °C 30.4in /  1028.8hPa Calm     83% 0in /  0.0mm 0 W/m2
00:28 38.8 °F /  3.8 °C 34.3 °F /  1.3 °C 30.4in /  1029.1hPa Calm   2mph /  3.2km/h 84% 0in /  0.0mm 0 W/m2
00:33 38.8 °F /  3.8 °C 34.3 °F /  1.3 °C 30.4in /  1029.1hPa SE 0.9mph /  1.4km/h 2mph /  3.2km/h 84% 0in /  0.0mm 0 W/m2
00:38 38.7 °F /  3.7 °C 34.2 °F /  1.2 °C 30.4in /  1029.1hPa Calm   2mph /  3.2km/h 84% 0in /  0.0mm 0 W/m2
00:43 38.7 °F /  3.7 °C 34.5 °F /  1.4 °C 30.4in /  1029.1hPa Calm   1mph /  1.6km/h 85% 0in /  0.0mm 0 W/m2
00:49 38.7 °F /  3.7 °C 34.5 °F /  1.4 °C 30.4in /  1029.1hPa Calm   1mph /  1.6km/h 85% 0in /  0.0mm 0 W/m2
00:54 38.7 °F /  3.7 °C 34.5 °F /  1.4 °C 30.4in /  1029.1hPa Calm   1mph /  1.6km/h 85% 0in /  0.0mm 0 W/m2
00:59 38.7 °F /  3.7 °C 34.5 °F /  1.4 °C 30.4in /  1029.1hPa Calm     85% 0in /  0.0mm 0 W/m2
01:04 38.7 °F /  3.7 °C 34.5 °F /  1.4 °C 30.4in /  1029.1hPa SE 0.9mph /  1.4km/h 1mph /  1.6km/h 85% 0in /  0.0mm 0 W/m2
01:09 38.5 °F /  3.6 °C 34.3 °F /  1.3 °C 30.4in /  1029.1hPa Calm   1mph /  1.6km/h 85% 0in /  0.0mm 0 W/m2
01:14 38.5 °F /  3.6 °C 34.3 °F /  1.3 °C 30.4in /  1029.1hPa Calm     85% 0in /  0.0mm 0 W/m2
01:19 38.3 °F /  3.5 °C 34.2 °F /  1.2 °C 30.4in /  1029.1hPa Calm     85% 0in /  0.0mm 0 W/m2
01:24 38.1 °F /  3.4 °C 34 °F /  1.1 °C 30.4in /  1029.1hPa Calm     85% 0in /  0.0mm 0 W/m2
01:29 38.1 °F /  3.4 °C 34.3 °F /  1.3 °C 30.4in /  1029.1hPa Calm     86% 0in /  0.0mm 0 W/m2
01:34 38.1 °F /  3.4 °C 34.3 °F /  1.3 °C 30.4in /  1029.1hPa Calm     86% 0in /  0.0mm 0 W/m2
01:39 38.3 °F /  3.5 °C 34.5 °F /  1.4 °C 30.4in /  1029.1hPa Calm     86% 0in /  0.0mm 0 W/m2
01:44 38.5 °F /  3.6 °C 34.3 °F /  1.3 °C 30.4in /  1029.1hPa Calm     85% 0in /  0.0mm 0 W/m2
01:49 38.1 °F /  3.4 °C 34 °F /  1.1 °C 30.4in /  1029.1hPa SE 0.9mph /  1.4km/h 1mph /  1.6km/h 85% 0in /  0.0mm 0 W/m2
01:54 38.1 °F /  3.4 °C 34 °F /  1.1 °C 30.4in /  1029.1hPa Calm     85% 0in /  0.0mm 0 W/m2
01:59 37.9 °F /  3.3 °C 33.8 °F /  1 °C 30.4in /  1029.1hPa Calm   1mph /  1.6km/h 85% 0in /  0.0mm 0 W/m2
02:04 37.9 °F /  3.3 °C 33.8 °F /  1 °C 30.4in /  1029.5hPa Calm     85% 0in /  0.0mm 0 W/m2
02:09 37.8 °F /  3.2 °C 33.6 °F /  0.9 °C 30.4in /  1029.5hPa Calm     85% 0in /  0.0mm 0 W/m2
02:14 37.6 °F /  3.1 °C 33.8 °F /  1 °C 30.4in /  1029.1hPa Calm   1mph /  1.6km/h 86% 0in /  0.0mm 0 W/m2
02:19 37.8 °F /  3.2 °C 34 °F /  1.1 °C 30.4in /  1029.5hPa Calm     86% 0in /  0.0mm 0 W/m2
02:24 37.8 °F /  3.2 °C 34 °F /  1.1 °C 30.4in /  1029.5hPa Calm   1mph /  1.6km/h 86% 0in /  0.0mm 0 W/m2
02:29 37.8 °F /  3.2 °C 34 °F /  1.1 °C 30.4in /  1029.5hPa Calm     86% 0in /  0.0mm 0 W/m2
02:34 37.6 °F /  3.1 °C 33.8 °F /  1 °C 30.4in /  1029.1hPa Calm     86% 0in /  0.0mm 0 W/m2
02:39 37.4 °F /  3 °C 33.6 °F /  0.9 °C 30.4in /  1029.1hPa Calm     86% 0in /  0.0mm 0 W/m2
02:44 37.2 °F /  2.9 °C 33.4 °F /  0.8 °C 30.4in /  1029.1hPa Calm     86% 0in /  0.0mm 0 W/m2
02:49 37.2 °F /  2.9 °C 33.4 °F /  0.8 °C 30.4in /  1029.1hPa Calm     86% 0in /  0.0mm 0 W/m2
02:54 37 °F /  2.8 °C 33.6 °F /  0.9 °C 30.4in /  1029.1hPa Calm     87% 0in /  0.0mm 0 W/m2
02:59 37 °F /  2.8 °C 33.6 °F /  0.9 °C 30.4in /  1029.1hPa Calm     87% 0in /  0.0mm 0 W/m2
03:04 37 °F /  2.8 °C 33.6 °F /  0.9 °C 30.4in /  1029.1hPa Calm     87% 0in /  0.0mm 0 W/m2
03:09 36.9 °F /  2.7 °C 33.4 °F /  0.8 °C 30.4in /  1029.1hPa Calm     87% 0in /  0.0mm 0 W/m2
03:14 36.9 °F /  2.7 °C 33.6 °F /  0.9 °C 30.4in /  1029.1hPa Calm     88% 0in /  0.0mm 0 W/m2
03:19 36.7 °F /  2.6 °C 33.4 °F /  0.8 °C 30.4in /  1029.1hPa Calm     88% 0in /  0.0mm 0 W/m2
03:24 36.7 °F /  2.6 °C 33.4 °F /  0.8 °C 30.4in /  1029.1hPa Calm   1mph /  1.6km/h 88% 0in /  0.0mm 0 W/m2
03:29 36.5 °F /  2.5 °C 33.3 °F /  0.7 °C 30.4in /  1029.1hPa Calm   1mph /  1.6km/h 88% 0in /  0.0mm 0 W/m2
03:34 36.3 °F /  2.4 °C 33.1 °F /  0.6 °C 30.4in /  1029.1hPa Calm     88% 0in /  0.0mm 0 W/m2
03:39 36.3 °F /  2.4 °C 33.4 °F /  0.8 °C 30.4in /  1029.1hPa Calm   1mph /  1.6km/h 89% 0in /  0.0mm 0 W/m2
03:44 36.3 °F /  2.4 °C 33.4 °F /  0.8 °C 30.4in /  1029.1hPa Calm   1mph /  1.6km/h 89% 0in /  0.0mm 0 W/m2
03:49 36.5 °F /  2.5 °C 33.6 °F /  0.9 °C 30.4in /  1029.1hPa Calm   1mph /  1.6km/h 89% 0in /  0.0mm 0 W/m2
03:54 36.7 °F /  2.6 °C 33.8 °F /  1 °C 30.4in /  1029.1hPa Calm     89% 0in /  0.0mm 0 W/m2
03:59 36.7 °F /  2.6 °C 33.8 °F /  1 °C 30.4in /  1029.1hPa Calm   1mph /  1.6km/h 89% 0in /  0.0mm 0 W/m2
04:04 36.7 °F /  2.6 °C 33.4 °F /  0.8 °C 30.4in /  1029.1hPa SE 2mph /  3.2km/h 2mph /  3.2km/h 88% 0in /  0.0mm 0 W/m2
04:09 36.5 °F /  2.5 °C 33.6 °F /  0.9 °C 30.4in /  1029.1hPa Calm     89% 0in /  0.0mm 0 W/m2
04:14 36.7 °F /  2.6 °C 33.8 °F /  1 °C 30.4in /  1029.1hPa Calm     89% 0in /  0.0mm 0 W/m2
04:19 36.5 °F /  2.5 °C 33.3 °F /  0.7 °C 30.4in /  1029.1hPa Calm     88% 0in /  0.0mm 0 W/m2
04:24 36.3 °F /  2.4 °C 33.1 °F /  0.6 °C 30.4in /  1029.1hPa Calm     88% 0in /  0.0mm 0 W/m2
04:29 36.1 °F /  2.3 °C 32.9 °F /  0.5 °C 30.4in /  1029.1hPa Calm     88% 0in /  0.0mm 0 W/m2
04:34 36.1 °F /  2.3 °C 32.9 °F /  0.5 °C 30.4in /  1029.1hPa Calm     88% 0in /  0.0mm 0 W/m2
04:39 36 °F /  2.2 °C 32.7 °F /  0.4 °C 30.4in /  1029.1hPa Calm     88% 0in /  0.0mm 0 W/m2
04:44 36 °F /  2.2 °C 33.1 °F /  0.6 °C 30.4in /  1029.1hPa Calm     89% 0in /  0.0mm 0 W/m2
04:49 36.1 °F /  2.3 °C 33.3 °F /  0.7 °C 30.4in /  1029.1hPa SE 0.9mph /  1.4km/h 2mph /  3.2km/h 89% 0in /  0.0mm 0 W/m2
04:54 36.1 °F /  2.3 °C 33.3 °F /  0.7 °C 30.4in /  1029.1hPa Calm   2mph /  3.2km/h 89% 0in /  0.0mm 0 W/m2
04:59 36.1 °F /  2.3 °C 32.9 °F /  0.5 °C 30.4in /  1029.1hPa Calm     88% 0in /  0.0mm 0 W/m2
05:04 36 °F /  2.2 °C 32.7 °F /  0.4 °C 30.4in /  1029.1hPa Calm     88% 0in /  0.0mm 0 W/m2
05:09 36 °F /  2.2 °C 32.7 °F /  0.4 °C 30.4in /  1029.1hPa Calm     88% 0in /  0.0mm 0 W/m2
05:14 35.8 °F /  2.1 °C 32.9 °F /  0.5 °C 30.4in /  1029.1hPa Calm     89% 0in /  0.0mm 0 W/m2
05:19 35.8 °F /  2.1 °C 32.9 °F /  0.5 °C 30.4in /  1029.1hPa Calm     89% 0in /  0.0mm 0 W/m2
05:24 35.6 °F /  2 °C 32.7 °F /  0.4 °C 30.4in /  1029.1hPa Calm     89% 0in /  0.0mm 0 W/m2
05:29 35.4 °F /  1.9 °C 32.5 °F /  0.3 °C 30.4in /  1029.1hPa Calm     89% 0in /  0.0mm 0 W/m2
05:34 35.6 °F /  2 °C 32.7 °F /  0.4 °C 30.4in /  1029.1hPa Calm     89% 0in /  0.0mm 0 W/m2
05:39 35.8 °F /  2.1 °C 32.9 °F /  0.5 °C 30.4in /  1029.1hPa Calm     89% 0in /  0.0mm 0 W/m2
05:44 36 °F /  2.2 °C 33.1 °F /  0.6 °C 30.4in /  1029.5hPa Calm     89% 0in /  0.0mm 0 W/m2
05:49 36 °F /  2.2 °C 33.1 °F /  0.6 °C 30.4in /  1029.5hPa Calm     89% 0in /  0.0mm 0 W/m2
05:54 35.8 °F /  2.1 °C 32.9 °F /  0.5 °C 30.4in /  1029.5hPa Calm     89% 0in /  0.0mm 0 W/m2
05:59 35.8 °F /  2.1 °C 32.9 °F /  0.5 °C 30.4in /  1029.5hPa Calm     89% 0in /  0.0mm 0 W/m2
06:04 35.8 °F /  2.1 °C 32.9 °F /  0.5 °C 30.4in /  1029.5hPa Calm     89% 0in /  0.0mm 0 W/m2
06:09 35.8 °F /  2.1 °C 32.9 °F /  0.5 °C 30.4in /  1029.5hPa Calm     89% 0in /  0.0mm 0 W/m2
06:14 35.8 °F /  2.1 °C 32.9 °F /  0.5 °C 30.4in /  1029.5hPa Calm     89% 0in /  0.0mm 0 W/m2
06:19 35.8 °F /  2.1 °C 32.9 °F /  0.5 °C 30.4in /  1029.5hPa Calm     89% 0in /  0.0mm 0 W/m2
06:24 35.8 °F /  2.1 °C 32.9 °F /  0.5 °C 30.4in /  1029.5hPa Calm     89% 0in /  0.0mm 0 W/m2
06:29 35.8 °F /  2.1 °C 32.9 °F /  0.5 °C 30.4in /  1029.5hPa Calm     89% 0in /  0.0mm 0 W/m2
06:34 35.8 °F /  2.1 °C 32.9 °F /  0.5 °C 30.4in /  1029.5hPa Calm     89% 0in /  0.0mm 0 W/m2
06:39 35.6 °F /  2 °C 32.4 °F /  0.2 °C 30.4in /  1029.5hPa Calm     88% 0in /  0.0mm 0 W/m2
06:44 35.4 °F /  1.9 °C 32.2 °F /  0.1 °C 30.4in /  1029.5hPa Calm     88% 0in /  0.0mm 0 W/m2
06:49 35.2 °F /  1.8 °C 32.4 °F /  0.2 °C 30.4in /  1029.5hPa Calm     89% 0in /  0.0mm 0 W/m2
06:54 35.1 °F /  1.7 °C 32.2 °F /  0.1 °C 30.4in /  1029.5hPa Calm     89% 0in /  0.0mm 0 W/m2
06:59 35.1 °F /  1.7 °C 32.2 °F /  0.1 °C 30.4in /  1029.5hPa Calm     89% 0in /  0.0mm 0 W/m2
07:04 35.1 °F /  1.7 °C 32.4 °F /  0.2 °C 30.4in /  1029.5hPa Calm     90% 0in /  0.0mm 0 W/m2
07:09 35.1 °F /  1.7 °C 32.4 °F /  0.2 °C 30.4in /  1029.5hPa Calm     90% 0in /  0.0mm 0 W/m2
07:19 35.1 °F /  1.7 °C 32.4 °F /  0.2 °C 30.4in /  1029.5hPa Calm     90% 0in /  0.0mm 5 W/m2
07:24 35.1 °F /  1.7 °C 32.4 °F /  0.2 °C 30.4in /  1029.5hPa Calm     90% 0in /  0.0mm 7 W/m2
07:29 35.1 °F /  1.7 °C 32.4 °F /  0.2 °C 30.4in /  1029.5hPa Calm     90% 0in /  0.0mm 9 W/m2
07:34 34.9 °F /  1.6 °C 32.2 °F /  0.1 °C 30.4in /  1029.8hPa Calm     90% 0in /  0.0mm 11 W/m2
07:39 34.7 °F /  1.5 °C 32 °F /  0 °C 30.4in /  1029.8hPa Calm     90% 0in /  0.0mm 14 W/m2
07:44 34.5 °F /  1.4 °C 31.8 °F /  -0.1 °C 30.4in /  1029.8hPa Calm     90% 0in /  0.0mm 16 W/m2
07:49 34.3 °F /  1.3 °C 31.6 °F /  -0.2 °C 30.4in /  1029.8hPa Calm     90% 0in /  0.0mm 18 W/m2
07:54 34.3 °F /  1.3 °C 31.6 °F /  -0.2 °C 30.4in /  1029.8hPa Calm     90% 0in /  0.0mm 19 W/m2
07:59 34.3 °F /  1.3 °C 31.6 °F /  -0.2 °C 30.4in /  1030.1hPa Calm     90% 0in /  0.0mm 21 W/m2
08:04 34.3 °F /  1.3 °C 32 °F /  0 °C 30.4in /  1030.1hPa Calm   1mph /  1.6km/h 91% 0in /  0.0mm 23 W/m2
08:09 34.3 °F /  1.3 °C 32 °F /  0 °C 30.4in /  1030.1hPa Calm     91% 0in /  0.0mm 28 W/m2
08:14 34.3 °F /  1.3 °C 32 °F /  0 °C 30.4in /  1030.1hPa Calm   1mph /  1.6km/h 91% 0in /  0.0mm 35 W/m2
08:24 34.3 °F /  1.3 °C 32.2 °F /  0.1 °C 30.4in /  1030.1hPa Calm     92% 0in /  0.0mm 35 W/m2
08:29 34.5 °F /  1.4 °C 32.4 °F /  0.2 °C 30.4in /  1030.1hPa Calm     92% 0in /  0.0mm 39 W/m2
08:34 34.7 °F /  1.5 °C 32.5 °F /  0.3 °C 30.4in /  1030.1hPa Calm     92% 0in /  0.0mm 58 W/m2
08:39 34.9 °F /  1.6 °C 32.7 °F /  0.4 °C 30.4in /  1030.1hPa Calm     92% 0in /  0.0mm 47 W/m2
08:44 35.1 °F /  1.7 °C 32.9 °F /  0.5 °C 30.4in /  1030.1hPa Calm     92% 0in /  0.0mm 120 W/m2
08:49 35.4 °F /  1.9 °C 33.3 °F /  0.7 °C 30.4in /  1030.1hPa Calm     92% 0in /  0.0mm 141 W/m2
08:54 36 °F /  2.2 °C 34.2 °F /  1.2 °C 30.4in /  1030.5hPa Calm   1mph /  1.6km/h 93% 0in /  0.0mm 158 W/m2
08:59 36.3 °F /  2.4 °C 34.5 °F /  1.4 °C 30.4in /  1030.5hPa Calm     93% 0in /  0.0mm 172 W/m2
09:04 37 °F /  2.8 °C 35.2 °F /  1.8 °C 30.4in /  1030.5hPa Calm   1mph /  1.6km/h 93% 0in /  0.0mm 185 W/m2
09:09 37.9 °F /  3.3 °C 35.8 °F /  2.1 °C 30.4in /  1030.5hPa Calm   2mph /  3.2km/h 92% 0in /  0.0mm 202 W/m2
09:14 39 °F /  3.9 °C 36.3 °F /  2.4 °C 30.4in /  1030.5hPa ESE 0.9mph /  1.4km/h 2mph /  3.2km/h 90% 0in /  0.0mm 190 W/m2
09:19 39.9 °F /  4.4 °C 36.3 °F /  2.4 °C 30.4in /  1030.8hPa ESE 0.9mph /  1.4km/h 2mph /  3.2km/h 87% 0in /  0.0mm 230 W/m2
09:24 40.8 °F /  4.9 °C 36.7 °F /  2.6 °C 30.4in /  1030.8hPa ESE 0.9mph /  1.4km/h 2mph /  3.2km/h 85% 0in /  0.0mm 236 W/m2
09:29 41.7 °F /  5.4 °C 36.9 °F /  2.7 °C 30.4in /  1030.8hPa ESE 0.9mph /  1.4km/h 1mph /  1.6km/h 83% 0in /  0.0mm 69 W/m2
09:34 42.4 °F /  5.8 °C 36.7 °F /  2.6 °C 30.4in /  1030.8hPa ESE 0.9mph /  1.4km/h 2mph /  3.2km/h 80% 0in /  0.0mm 269 W/m2
09:39 43.2 °F /  6.2 °C 37 °F /  2.8 °C 30.4in /  1030.8hPa ESE 0.9mph /  1.4km/h 2mph /  3.2km/h 79% 0in /  0.0mm 283 W/m2
09:44 43.3 °F /  6.3 °C 36.7 °F /  2.6 °C 30.4in /  1030.8hPa Calm   2mph /  3.2km/h 77% 0in /  0.0mm 295 W/m2
09:49 44.1 °F /  6.7 °C 37 °F /  2.8 °C 30.5in /  1031.2hPa ENE 0.9mph /  1.4km/h 1mph /  1.6km/h 76% 0in /  0.0mm 308 W/m2
09:54 44.4 °F /  6.9 °C 37 °F /  2.8 °C 30.5in /  1031.2hPa Calm   2mph /  3.2km/h 75% 0in /  0.0mm 322 W/m2
09:59 44.8 °F /  7.1 °C 36.7 °F /  2.6 °C 30.4in /  1030.8hPa ENE 2mph /  3.2km/h 4mph /  6.4km/h 73% 0in /  0.0mm 332 W/m2
10:04 44.6 °F /  7 °C 36.9 °F /  2.7 °C 30.4in /  1030.8hPa Calm   3mph /  4.8km/h 74% 0in /  0.0mm 343 W/m2
10:09 44.8 °F /  7.1 °C 37 °F /  2.8 °C 30.4in /  1030.8hPa ENE 2mph /  3.2km/h 3mph /  4.8km/h 74% 0in /  0.0mm 353 W/m2
10:14 45.1 °F /  7.3 °C 37.4 °F /  3 °C 30.5in /  1031.2hPa ESE 0.9mph /  1.4km/h 2mph /  3.2km/h 74% 0in /  0.0mm 366 W/m2
10:19 45.7 °F /  7.6 °C 37.6 °F /  3.1 °C 30.4in /  1030.8hPa ESE 0.9mph /  1.4km/h 3mph /  4.8km/h 73% 0in /  0.0mm 374 W/m2
10:24 46 °F /  7.8 °C 37.6 °F /  3.1 °C 30.5in /  1031.2hPa East 0.9mph /  1.4km/h 4mph /  6.4km/h 72% 0in /  0.0mm 385 W/m2
10:29 46.4 °F /  8 °C 37.6 °F /  3.1 °C 30.5in /  1031.2hPa East 2mph /  3.2km/h 4mph /  6.4km/h 71% 0in /  0.0mm 394 W/m2
10:34 46.8 °F /  8.2 °C 37.6 °F /  3.1 °C 30.4in /  1030.8hPa ESE 2.9mph /  4.7km/h 4mph /  6.4km/h 70% 0in /  0.0mm 404 W/m2
10:39 46.9 °F /  8.3 °C 37.2 °F /  2.9 °C 30.4in /  1030.8hPa Calm   4mph /  6.4km/h 69% 0in /  0.0mm 411 W/m2
10:44 46.9 °F /  8.3 °C 37.2 °F /  2.9 °C 30.4in /  1030.8hPa East 2mph /  3.2km/h 4mph /  6.4km/h 69% 0in /  0.0mm 420 W/m2
10:49 47.5 °F /  8.6 °C 37.8 °F /  3.2 °C 30.4in /  1030.8hPa ESE 4mph /  6.4km/h 6mph /  9.7km/h 69% 0in /  0.0mm 429 W/m2
10:54 47.8 °F /  8.8 °C 37.8 °F /  3.2 °C 30.4in /  1030.8hPa ENE 2mph /  3.2km/h 5mph /  8km/h 68% 0in /  0.0mm 438 W/m2
10:59 47.8 °F /  8.8 °C 37.4 °F /  3 °C 30.4in /  1030.8hPa ESE 2mph /  3.2km/h 5mph /  8km/h 67% 0in /  0.0mm 445 W/m2
11:04 48 °F /  8.9 °C 37.9 °F /  3.3 °C 30.4in /  1030.8hPa Calm   3mph /  4.8km/h 68% 0in /  0.0mm 454 W/m2
11:09 48.6 °F /  9.2 °C 38.1 °F /  3.4 °C 30.4in /  1030.8hPa ESE 0.9mph /  1.4km/h 5mph /  8km/h 67% 0in /  0.0mm 461 W/m2
11:14 49.1 °F /  9.5 °C 38.7 °F /  3.7 °C 30.4in /  1030.8hPa ENE 2mph /  3.2km/h 4mph /  6.4km/h 67% 0in /  0.0mm 469 W/m2
11:19 49.5 °F /  9.7 °C 38.1 °F /  3.4 °C 30.4in /  1030.8hPa ENE 2mph /  3.2km/h 3mph /  4.8km/h 65% 0in /  0.0mm 478 W/m2
11:24 50 °F /  10 °C 38.7 °F /  3.7 °C 30.4in /  1030.8hPa ESE 0.9mph /  1.4km/h 4mph /  6.4km/h 65% 0in /  0.0mm 469 W/m2
11:29 50.5 °F /  10.3 °C 38.8 °F /  3.8 °C 30.4in /  1030.8hPa SE 2mph /  3.2km/h 3mph /  4.8km/h 64% 0in /  0.0mm 374 W/m2
11:34 50.7 °F /  10.4 °C 39 °F /  3.9 °C 30.4in /  1030.8hPa East 0.9mph /  1.4km/h 4mph /  6.4km/h 64% 0in /  0.0mm 297 W/m2
11:39 51.1 °F /  10.6 °C 39.4 °F /  4.1 °C 30.4in /  1030.8hPa East 2.9mph /  4.7km/h 4mph /  6.4km/h 64% 0in /  0.0mm 339 W/m2
11:44 51.3 °F /  10.7 °C 39 °F /  3.9 °C 30.4in /  1030.8hPa SE 2mph /  3.2km/h 4mph /  6.4km/h 63% 0in /  0.0mm 281 W/m2
11:50 51.4 °F /  10.8 °C 39.2 °F /  4 °C 30.4in /  1030.8hPa ENE 2.9mph /  4.7km/h 6mph /  9.7km/h 63% 0in /  0.0mm 346 W/m2
11:55 51.4 °F /  10.8 °C 39.2 °F /  4 °C 30.4in /  1030.8hPa ENE 2mph /  3.2km/h 4mph /  6.4km/h 63% 0in /  0.0mm 399 W/m2
12:00 51.8 °F /  11 °C 39.6 °F /  4.2 °C 30.4in /  1030.8hPa East 0.9mph /  1.4km/h 6mph /  9.7km/h 63% 0in /  0.0mm 475 W/m2
12:05 52.2 °F /  11.2 °C 39.6 °F /  4.2 °C 30.4in /  1030.8hPa SE 2.9mph /  4.7km/h 4mph /  6.4km/h 62% 0in /  0.0mm 522 W/m2
12:10 52.3 °F /  11.3 °C 39.7 °F /  4.3 °C 30.4in /  1030.5hPa ESE 2mph /  3.2km/h 3mph /  4.8km/h 62% 0in /  0.0mm 527 W/m2
12:15 52.9 °F /  11.6 °C 39.7 °F /  4.3 °C 30.4in /  1030.8hPa ENE 2.9mph /  4.7km/h 5mph /  8km/h 61% 0in /  0.0mm 529 W/m2
12:20 53.2 °F /  11.8 °C 40.1 °F /  4.5 °C 30.4in /  1030.5hPa ENE 2.9mph /  4.7km/h 4mph /  6.4km/h 61% 0in /  0.0mm 533 W/m2
12:25 53.6 °F /  12 °C 39.6 °F /  4.2 °C 30.4in /  1030.5hPa ENE 2.9mph /  4.7km/h 6mph /  9.7km/h 59% 0in /  0.0mm 534 W/m2
12:30 53.8 °F /  12.1 °C 40.3 °F /  4.6 °C 30.4in /  1030.5hPa ESE 0.9mph /  1.4km/h 4mph /  6.4km/h 60% 0in /  0.0mm 536 W/m2
12:35 54.3 °F /  12.4 °C 40.8 °F /  4.9 °C 30.4in /  1030.5hPa East 2mph /  3.2km/h 6mph /  9.7km/h 60% 0in /  0.0mm 538 W/m2
12:40 55 °F /  12.8 °C 40.5 °F /  4.7 °C 30.4in /  1030.5hPa NE 2mph /  3.2km/h 4mph /  6.4km/h 58% 0in /  0.0mm 540 W/m2
12:45 55.2 °F /  12.9 °C 40.3 °F /  4.6 °C 30.4in /  1030.1hPa ESE 4mph /  6.4km/h 6mph /  9.7km/h 57% 0in /  0.0mm 541 W/m2
12:50 55.6 °F /  13.1 °C 40.1 °F /  4.5 °C 30.4in /  1030.1hPa NE 2.9mph /  4.7km/h 4mph /  6.4km/h 56% 0in /  0.0mm 540 W/m2
12:55 55.6 °F /  13.1 °C 40.6 °F /  4.8 °C 30.4in /  1030.1hPa ESE 0.9mph /  1.4km/h 3mph /  4.8km/h 57% 0in /  0.0mm 538 W/m2
13:00 55.8 °F /  13.2 °C 40.8 °F /  4.9 °C 30.4in /  1030.1hPa ENE 4mph /  6.4km/h 4mph /  6.4km/h 57% 0in /  0.0mm 540 W/m2
13:05 56.1 °F /  13.4 °C 40.6 °F /  4.8 °C 30.4in /  1030.1hPa Calm   5mph /  8km/h 56% 0in /  0.0mm 538 W/m2
13:10 56.7 °F /  13.7 °C 40.6 °F /  4.8 °C 30.4in /  1030.1hPa Calm   2mph /  3.2km/h 55% 0in /  0.0mm 536 W/m2
13:15 57 °F /  13.9 °C 40.5 °F /  4.7 °C 30.4in /  1030.1hPa East 2mph /  3.2km/h 7mph /  11.3km/h 54% 0in /  0.0mm 517 W/m2
13:20 57.4 °F /  14.1 °C 40.8 °F /  4.9 °C 30.4in /  1030.1hPa SSE 0.9mph /  1.4km/h 3mph /  4.8km/h 54% 0in /  0.0mm 230 W/m2
13:25 57.6 °F /  14.2 °C 40.6 °F /  4.8 °C 30.4in /  1030.1hPa ESE 2mph /  3.2km/h 4mph /  6.4km/h 53% 0in /  0.0mm 185 W/m2
13:30 57.7 °F /  14.3 °C 40.3 °F /  4.6 °C 30.4in /  1029.8hPa ESE 0.9mph /  1.4km/h 5mph /  8km/h 52% 0in /  0.0mm 195 W/m2
13:35 57.7 °F /  14.3 °C 40.6 °F /  4.8 °C 30.4in /  1029.8hPa ESE 0.9mph /  1.4km/h 6mph /  9.7km/h 53% 0in /  0.0mm 232 W/m2
13:40 57.7 °F /  14.3 °C 40.3 °F /  4.6 °C 30.4in /  1029.8hPa NE 2.9mph /  4.7km/h 7mph /  11.3km/h 52% 0in /  0.0mm 265 W/m2
13:45 57.7 °F /  14.3 °C 40.6 °F /  4.8 °C 30.4in /  1029.8hPa ESE 2.9mph /  4.7km/h 4mph /  6.4km/h 53% 0in /  0.0mm 162 W/m2
13:50 57.9 °F /  14.4 °C 40.8 °F /  4.9 °C 30.4in /  1029.8hPa SE 0.9mph /  1.4km/h 7mph /  11.3km/h 53% 0in /  0.0mm 195 W/m2
13:55 58.1 °F /  14.5 °C 41 °F /  5 °C 30.4in /  1029.8hPa ESE 4mph /  6.4km/h 6mph /  9.7km/h 53% 0in /  0.0mm 195 W/m2
14:00 58.3 °F /  14.6 °C 40.3 °F /  4.6 °C 30.4in /  1029.5hPa ESE 2mph /  3.2km/h 7mph /  11.3km/h 51% 0in /  0.0mm 179 W/m2
14:05 58.5 °F /  14.7 °C 41.4 °F /  5.2 °C 30.4in /  1029.5hPa Calm   6mph /  9.7km/h 53% 0in /  0.0mm 163 W/m2
14:10 58.6 °F /  14.8 °C 40.6 °F /  4.8 °C 30.4in /  1029.5hPa East 2mph /  3.2km/h 4mph /  6.4km/h 51% 0in /  0.0mm 163 W/m2
14:15 58.8 °F /  14.9 °C 40.8 °F /  4.9 °C 30.4in /  1029.5hPa ESE 2mph /  3.2km/h 6mph /  9.7km/h 51% 0in /  0.0mm 153 W/m2
14:20 59.2 °F /  15.1 °C 41 °F /  5 °C 30.4in /  1029.5hPa ESE 2.9mph /  4.7km/h 6mph /  9.7km/h 51% 0in /  0.0mm 178 W/m2
14:25 59.2 °F /  15.1 °C 41 °F /  5 °C 30.4in /  1029.5hPa SE 2.9mph /  4.7km/h 4mph /  6.4km/h 51% 0in /  0.0mm 276 W/m2
14:30 59.4 °F /  15.2 °C 41.2 °F /  5.1 °C 30.4in /  1029.5hPa SE 2.9mph /  4.7km/h 4mph /  6.4km/h 51% 0in /  0.0mm 403 W/m2
14:35 59.5 °F /  15.3 °C 40.8 °F /  4.9 °C 30.4in /  1029.5hPa ESE 2.9mph /  4.7km/h 6mph /  9.7km/h 50% 0in /  0.0mm 413 W/m2
14:40 59.7 °F /  15.4 °C 41 °F /  5 °C 30.4in /  1029.5hPa East 2mph /  3.2km/h 3mph /  4.8km/h 50% 0in /  0.0mm 450 W/m2
14:45 60.1 °F /  15.6 °C 41.4 °F /  5.2 °C 30.4in /  1029.5hPa East 2mph /  3.2km/h 4mph /  6.4km/h 50% 0in /  0.0mm 443 W/m2
14:50 60.4 °F /  15.8 °C 41.2 °F /  5.1 °C 30.4in /  1029.5hPa East 2.9mph /  4.7km/h 3mph /  4.8km/h 49% 0in /  0.0mm 424 W/m2
14:55 60.6 °F /  15.9 °C 41.9 °F /  5.5 °C 30.4in /  1029.5hPa Calm   2mph /  3.2km/h 50% 0in /  0.0mm 418 W/m2
15:00 60.6 °F /  15.9 °C 41.4 °F /  5.2 °C 30.4in /  1029.1hPa ESE 0.9mph /  1.4km/h 2mph /  3.2km/h 49% 0in /  0.0mm 410 W/m2
15:06 61 °F /  16.1 °C 40.6 °F /  4.8 °C 30.4in /  1029.1hPa East 2mph /  3.2km/h 3mph /  4.8km/h 47% 0in /  0.0mm 392 W/m2
15:11 61.2 °F /  16.2 °C 40.8 °F /  4.9 °C 30.4in /  1029.1hPa East 0.9mph /  1.4km/h 1mph /  1.6km/h 47% 0in /  0.0mm 318 W/m2
15:16 61.3 °F /  16.3 °C 40.5 °F /  4.7 °C 30.4in /  1029.1hPa SE 0.9mph /  1.4km/h 4mph /  6.4km/h 46% 0in /  0.0mm 394 W/m2
15:21 61.3 °F /  16.3 °C 40.5 °F /  4.7 °C 30.4in /  1029.1hPa ESE 4mph /  6.4km/h 6mph /  9.7km/h 46% 0in /  0.0mm 381 W/m2
15:26 61.3 °F /  16.3 °C 39.7 °F /  4.3 °C 30.4in /  1029.1hPa East 4.9mph /  7.9km/h 5mph /  8km/h 45% 0in /  0.0mm 369 W/m2
15:31 61.5 °F /  16.4 °C 39.9 °F /  4.4 °C 30.4in /  1029.1hPa East 2mph /  3.2km/h 5mph /  8km/h 45% 0in /  0.0mm 360 W/m2
15:36 61.5 °F /  16.4 °C 39.4 °F /  4.1 °C 30.4in /  1029.1hPa ESE 2mph /  3.2km/h 7mph /  11.3km/h 44% 0in /  0.0mm 346 W/m2
15:41 61.5 °F /  16.4 °C 39.4 °F /  4.1 °C 30.4in /  1029.1hPa East 6mph /  9.7km/h 6mph /  9.7km/h 44% 0in /  0.0mm 338 W/m2
15:46 61.7 °F /  16.5 °C 40.1 °F /  4.5 °C 30.4in /  1029.1hPa ESE 2mph /  3.2km/h 4mph /  6.4km/h 45% 0in /  0.0mm 325 W/m2
15:51 61.7 °F /  16.5 °C 39.6 °F /  4.2 °C 30.4in /  1029.1hPa ESE 2.9mph /  4.7km/h 7mph /  11.3km/h 44% 0in /  0.0mm 318 W/m2
15:56 61.7 °F /  16.5 °C 40.1 °F /  4.5 °C 30.4in /  1029.1hPa SE 0.9mph /  1.4km/h 3mph /  4.8km/h 45% 0in /  0.0mm 306 W/m2
16:01 61.7 °F /  16.5 °C 40.6 °F /  4.8 °C 30.4in /  1029.1hPa East 0.9mph /  1.4km/h 2mph /  3.2km/h 46% 0in /  0.0mm 292 W/m2
16:06 61.9 °F /  16.6 °C 40.8 °F /  4.9 °C 30.4in /  1028.8hPa East 2mph /  3.2km/h 4mph /  6.4km/h 46% 0in /  0.0mm 283 W/m2
16:11 61.9 °F /  16.6 °C 40.3 °F /  4.6 °C 30.4in /  1028.8hPa East 2mph /  3.2km/h 4mph /  6.4km/h 45% 0in /  0.0mm 271 W/m2
16:16 61.7 °F /  16.5 °C 39.6 °F /  4.2 °C 30.4in /  1028.8hPa ENE 0.9mph /  1.4km/h 3mph /  4.8km/h 44% 0in /  0.0mm 258 W/m2
16:21 61.7 °F /  16.5 °C 40.1 °F /  4.5 °C 30.4in /  1028.8hPa ESE 2.9mph /  4.7km/h 4mph /  6.4km/h 45% 0in /  0.0mm 232 W/m2
16:26 61.5 °F /  16.4 °C 39.9 °F /  4.4 °C 30.4in /  1028.8hPa Calm   1mph /  1.6km/h 45% 0in /  0.0mm 232 W/m2
16:36 61.3 °F /  16.3 °C 39.7 °F /  4.3 °C 30.4in /  1028.8hPa Calm   2mph /  3.2km/h 45% 0in /  0.0mm 114 W/m2
16:41 61.2 °F /  16.2 °C 40.3 °F /  4.6 °C 30.4in /  1028.8hPa Calm   2mph /  3.2km/h 46% 0in /  0.0mm 90 W/m2
16:46 60.6 °F /  15.9 °C 39.7 °F /  4.3 °C 30.4in /  1028.8hPa ESE 2mph /  3.2km/h 3mph /  4.8km/h 46% 0in /  0.0mm 79 W/m2
16:51 60.3 °F /  15.7 °C 39.4 °F /  4.1 °C 30.4in /  1028.8hPa Calm   2mph /  3.2km/h 46% 0in /  0.0mm 86 W/m2
16:56 59.7 °F /  15.4 °C 39.9 °F /  4.4 °C 30.4in /  1028.8hPa SE 0.9mph /  1.4km/h 2mph /  3.2km/h 48% 0in /  0.0mm 100 W/m2
17:01 59.4 °F /  15.2 °C 39.7 °F /  4.3 °C 30.4in /  1028.5hPa Calm   2mph /  3.2km/h 48% 0in /  0.0mm 74 W/m2
17:06 59 °F /  15 °C 39.9 °F /  4.4 °C 30.4in /  1028.5hPa Calm     49% 0in /  0.0mm 58 W/m2
17:11 58.6 °F /  14.8 °C 40.1 °F /  4.5 °C 30.4in /  1028.5hPa Calm   1mph /  1.6km/h 50% 0in /  0.0mm 54 W/m2
17:16 58.1 °F /  14.5 °C 39.6 °F /  4.2 °C 30.4in /  1028.5hPa NNE 0.9mph /  1.4km/h 2mph /  3.2km/h 50% 0in /  0.0mm 51 W/m2
17:21 57.6 °F /  14.2 °C 39.6 °F /  4.2 °C 30.4in /  1028.5hPa Calm   1mph /  1.6km/h 51% 0in /  0.0mm 49 W/m2
17:26 57.2 °F /  14 °C 39.7 °F /  4.3 °C 30.4in /  1028.5hPa Calm   2mph /  3.2km/h 52% 0in /  0.0mm 46 W/m2
17:31 56.8 °F /  13.8 °C 39.9 °F /  4.4 °C 30.4in /  1028.5hPa Calm   1mph /  1.6km/h 53% 0in /  0.0mm 42 W/m2
17:36 56.5 °F /  13.6 °C 39.6 °F /  4.2 °C 30.4in /  1028.5hPa Calm   2mph /  3.2km/h 53% 0in /  0.0mm 39 W/m2
17:41 55.9 °F /  13.3 °C 39.6 °F /  4.2 °C 30.4in /  1028.5hPa Calm   2mph /  3.2km/h 54% 0in /  0.0mm 35 W/m2
17:46 55.6 °F /  13.1 °C 39.2 °F /  4 °C 30.4in /  1028.5hPa Calm   1mph /  1.6km/h 54% 0in /  0.0mm 30 W/m2
17:51 55.2 °F /  12.9 °C 39.4 °F /  4.1 °C 30.4in /  1028.5hPa Calm   1mph /  1.6km/h 55% 0in /  0.0mm 26 W/m2
17:56 54.9 °F /  12.7 °C 39.4 °F /  4.1 °C 30.4in /  1028.5hPa South 0.9mph /  1.4km/h 1mph /  1.6km/h 56% 0in /  0.0mm 21 W/m2
18:01 54.3 °F /  12.4 °C 39.4 °F /  4.1 °C 30.4in /  1028.5hPa South 0.9mph /  1.4km/h 1mph /  1.6km/h 57% 0in /  0.0mm 16 W/m2
18:06 54 °F /  12.2 °C 39.6 °F /  4.2 °C 30.4in /  1028.5hPa Calm   2mph /  3.2km/h 58% 0in /  0.0mm 11 W/m2
18:11 53.4 °F /  11.9 °C 39.4 °F /  4.1 °C 30.4in /  1028.5hPa Calm     59% 0in /  0.0mm 7 W/m2
18:16 53.1 °F /  11.7 °C 39.6 °F /  4.2 °C 30.4in /  1028.5hPa Calm     60% 0in /  0.0mm 5 W/m2
18:21 52.5 °F /  11.4 °C 39.4 °F /  4.1 °C 30.4in /  1028.5hPa Calm   1mph /  1.6km/h 61% 0in /  0.0mm 0 W/m2
18:26 52.2 °F /  11.2 °C 39.2 °F /  4 °C 30.4in /  1028.8hPa South 0.9mph /  1.4km/h 1mph /  1.6km/h 61% 0in /  0.0mm 0 W/m2
18:31 51.6 °F /  10.9 °C 39 °F /  3.9 °C 30.4in /  1028.8hPa Calm   2mph /  3.2km/h 62% 0in /  0.0mm 0 W/m2
18:41 50.7 °F /  10.4 °C 39 °F /  3.9 °C 30.4in /  1028.8hPa South 0.9mph /  1.4km/h 2mph /  3.2km/h 64% 0in /  0.0mm 0 W/m2
18:46 50.5 °F /  10.3 °C 39.2 °F /  4 °C 30.4in /  1028.8hPa Calm   2mph /  3.2km/h 65% 0in /  0.0mm 0 W/m2
18:51 50.2 °F /  10.1 °C 39.2 °F /  4 °C 30.4in /  1029.1hPa Calm   1mph /  1.6km/h 66% 0in /  0.0mm 0 W/m2
18:56 49.8 °F /  9.9 °C 38.8 °F /  3.8 °C 30.4in /  1029.1hPa Calm   2mph /  3.2km/h 66% 0in /  0.0mm 0 W/m2
19:01 49.6 °F /  9.8 °C 39.2 °F /  4 °C 30.4in /  1029.1hPa Calm   1mph /  1.6km/h 67% 0in /  0.0mm 0 W/m2
19:06 49.5 °F /  9.7 °C 39 °F /  3.9 °C 30.4in /  1029.1hPa Calm   1mph /  1.6km/h 67% 0in /  0.0mm 0 W/m2
19:11 49.3 °F /  9.6 °C 39.2 °F /  4 °C 30.4in /  1029.1hPa Calm   1mph /  1.6km/h 68% 0in /  0.0mm 0 W/m2
19:16 49.1 °F /  9.5 °C 39 °F /  3.9 °C 30.4in /  1029.1hPa Calm     68% 0in /  0.0mm 0 W/m2
19:21 48.9 °F /  9.4 °C 38.8 °F /  3.8 °C 30.4in /  1029.1hPa Calm   1mph /  1.6km/h 68% 0in /  0.0mm 0 W/m2
19:26 48.9 °F /  9.4 °C 38.8 °F /  3.8 °C 30.4in /  1029.1hPa Calm     68% 0in /  0.0mm 0 W/m2
19:31 48.7 °F /  9.3 °C 39 °F /  3.9 °C 30.4in /  1029.1hPa Calm     69% 0in /  0.0mm 0 W/m2
19:36 48.6 °F /  9.2 °C 38.8 °F /  3.8 °C 30.4in /  1029.1hPa Calm     69% 0in /  0.0mm 0 W/m2
19:41 48.6 °F /  9.2 °C 38.8 °F /  3.8 °C 30.4in /  1029.1hPa Calm     69% 0in /  0.0mm 0 W/m2
19:46 48.2 °F /  9 °C 38.5 °F /  3.6 °C 30.4in /  1029.1hPa Calm     69% 0in /  0.0mm 0 W/m2
19:51 48 °F /  8.9 °C 38.3 °F /  3.5 °C 30.4in /  1029.1hPa Calm     69% 0in /  0.0mm 0 W/m2
19:56 47.8 °F /  8.8 °C 38.5 °F /  3.6 °C 30.4in /  1029.1hPa Calm     70% 0in /  0.0mm 0 W/m2
20:01 47.7 °F /  8.7 °C 38.3 °F /  3.5 °C 30.4in /  1029.1hPa Calm     70% 0in /  0.0mm 0 W/m2
20:06 47.7 °F /  8.7 °C 38.3 °F /  3.5 °C 30.4in /  1029.1hPa Calm     70% 0in /  0.0mm 0 W/m2
20:11 47.3 °F /  8.5 °C 37.9 °F /  3.3 °C 30.4in /  1029.1hPa Calm     70% 0in /  0.0mm 0 W/m2
20:16 47.1 °F /  8.4 °C 38.1 °F /  3.4 °C 30.4in /  1029.1hPa Calm     71% 0in /  0.0mm 0 W/m2
20:21 46.9 °F /  8.3 °C 38.1 °F /  3.4 °C 30.4in /  1029.1hPa Calm     71% 0in /  0.0mm 0 W/m2
20:26 46.6 °F /  8.1 °C 38.1 °F /  3.4 °C 30.4in /  1029.1hPa Calm     72% 0in /  0.0mm 0 W/m2
20:31 46.6 °F /  8.1 °C 38.1 °F /  3.4 °C 30.4in /  1029.1hPa Calm     72% 0in /  0.0mm 0 W/m2
20:36 46.4 °F /  8 °C 38.3 °F /  3.5 °C 30.4in /  1029.5hPa Calm     73% 0in /  0.0mm 0 W/m2
20:41 46 °F /  7.8 °C 37.6 °F /  3.1 °C 30.4in /  1029.1hPa Calm     72% 0in /  0.0mm 0 W/m2
20:46 46 °F /  7.8 °C 37.9 °F /  3.3 °C 30.4in /  1029.1hPa Calm     73% 0in /  0.0mm 0 W/m2
20:51 45.9 °F /  7.7 °C 37.8 °F /  3.2 °C 30.4in /  1029.5hPa Calm     73% 0in /  0.0mm 0 W/m2
20:56 45.7 °F /  7.6 °C 37.6 °F /  3.1 °C 30.4in /  1029.5hPa Calm   1mph /  1.6km/h 73% 0in /  0.0mm 0 W/m2
21:01 45.5 °F /  7.5 °C 37.4 °F /  3 °C 30.4in /  1029.1hPa Calm     73% 0in /  0.0mm 0 W/m2
21:06 45.3 °F /  7.4 °C 37.6 °F /  3.1 °C 30.4in /  1029.5hPa Calm   1mph /  1.6km/h 74% 0in /  0.0mm 0 W/m2
21:11 45.1 °F /  7.3 °C 37.4 °F /  3 °C 30.4in /  1029.5hPa Calm     74% 0in /  0.0mm 0 W/m2
21:16 45 °F /  7.2 °C 37.2 °F /  2.9 °C 30.4in /  1029.5hPa Calm     74% 0in /  0.0mm 0 W/m2
21:21 45 °F /  7.2 °C 37.6 °F /  3.1 °C 30.4in /  1029.5hPa Calm     75% 0in /  0.0mm 0 W/m2
21:26 44.8 °F /  7.1 °C 37.4 °F /  3 °C 30.4in /  1029.5hPa Calm     75% 0in /  0.0mm 0 W/m2
21:31 44.8 °F /  7.1 °C 37.4 °F /  3 °C 30.4in /  1029.1hPa Calm     75% 0in /  0.0mm 0 W/m2
21:36 44.4 °F /  6.9 °C 37 °F /  2.8 °C 30.4in /  1029.5hPa Calm     75% 0in /  0.0mm 0 W/m2
21:41 44.4 °F /  6.9 °C 37 °F /  2.8 °C 30.4in /  1029.5hPa Calm     75% 0in /  0.0mm 0 W/m2
21:51 44.2 °F /  6.8 °C 36.9 °F /  2.7 °C 30.4in /  1029.5hPa South 1mph /  1.6km/h 1mph /  1.6km/h 75% 0in /  0.0mm 0 W/m2
21:56 43.9 °F /  6.6 °C 36.5 °F /  2.5 °C 30.4in /  1029.5hPa Calm   1mph /  1.6km/h 75% 0in /  0.0mm 0 W/m2
22:01 43.7 °F /  6.5 °C 36.7 °F /  2.6 °C 30.4in /  1029.5hPa Calm     76% 0in /  0.0mm 0 W/m2
22:06 43.5 °F /  6.4 °C 36.5 °F /  2.5 °C 30.4in /  1029.5hPa Calm   1mph /  1.6km/h 76% 0in /  0.0mm 0 W/m2
22:11 43.3 °F /  6.3 °C 36.7 °F /  2.6 °C 30.4in /  1029.5hPa Calm     77% 0in /  0.0mm 0 W/m2
22:16 43.2 °F /  6.2 °C 36.5 °F /  2.5 °C 30.4in /  1029.5hPa Calm   1mph /  1.6km/h 77% 0in /  0.0mm 0 W/m2
22:21 43.2 °F /  6.2 °C 36.5 °F /  2.5 °C 30.4in /  1029.5hPa Calm     77% 0in /  0.0mm 0 W/m2
22:26 43 °F /  6.1 °C 36.3 °F /  2.4 °C 30.4in /  1029.5hPa South 1mph /  1.6km/h 1mph /  1.6km/h 77% 0in /  0.0mm 0 W/m2
22:31 42.8 °F /  6 °C 36.1 °F /  2.3 °C 30.4in /  1029.5hPa Calm     77% 0in /  0.0mm 0 W/m2
22:36 42.6 °F /  5.9 °C 36 °F /  2.2 °C 30.4in /  1029.5hPa Calm     77% 0in /  0.0mm 0 W/m2
22:41 42.6 °F /  5.9 °C 36.3 °F /  2.4 °C 30.4in /  1029.8hPa Calm   1mph /  1.6km/h 78% 0in /  0.0mm 0 W/m2
22:46 42.4 °F /  5.8 °C 36.1 °F /  2.3 °C 30.4in /  1029.8hPa Calm     78% 0in /  0.0mm 0 W/m2
22:51 42.4 °F /  5.8 °C 36.1 °F /  2.3 °C 30.4in /  1029.8hPa Calm     78% 0in /  0.0mm 0 W/m2
22:56 42.4 °F /  5.8 °C 36.1 °F /  2.3 °C 30.4in /  1029.8hPa South 0.9mph /  1.4km/h 2mph /  3.2km/h 78% 0in /  0.0mm 0 W/m2
23:01 42.3 °F /  5.7 °C 36 °F /  2.2 °C 30.4in /  1029.5hPa Calm     78% 0in /  0.0mm 0 W/m2
23:06 42.3 °F /  5.7 °C 36.1 °F /  2.3 °C 30.4in /  1029.8hPa Calm   2mph /  3.2km/h 79% 0in /  0.0mm 0 W/m2
23:11 42.3 °F /  5.7 °C 36.5 °F /  2.5 °C 30.4in /  1029.8hPa Calm   1mph /  1.6km/h 80% 0in /  0.0mm 0 W/m2
23:17 42.3 °F /  5.7 °C 36.5 °F /  2.5 °C 30.4in /  1029.8hPa Calm     80% 0in /  0.0mm 0 W/m2
23:22 42.1 °F /  5.6 °C 36.3 °F /  2.4 °C 30.4in /  1029.8hPa Calm   1mph /  1.6km/h 80% 0in /  0.0mm 0 W/m2
23:27 42.1 °F /  5.6 °C 36.3 °F /  2.4 °C 30.4in /  1029.8hPa Calm   1mph /  1.6km/h 80% 0in /  0.0mm 0 W/m2
23:32 41.7 °F /  5.4 °C 36 °F /  2.2 °C 30.4in /  1029.8hPa Calm     80% 0in /  0.0mm 0 W/m2
23:37 41.5 °F /  5.3 °C 35.8 °F /  2.1 °C 30.4in /  1029.8hPa Calm   1mph /  1.6km/h 80% 0in /  0.0mm 0 W/m2
23:42 41.5 °F /  5.3 °C 36.1 °F /  2.3 °C 30.4in /  1029.8hPa Calm     81% 0in /  0.0mm 0 W/m2
23:47 41.4 °F /  5.2 °C 36.3 °F /  2.4 °C 30.4in /  1029.8hPa Calm     82% 0in /  0.0mm 0 W/m2
23:52 41.4 °F /  5.2 °C 36.5 °F /  2.5 °C 30.4in /  1029.8hPa Calm     83% 0in /  0.0mm 0 W/m2
23:57 41.5 °F /  5.3 °C 36.7 °F /  2.6 °C 30.4in /  1029.8hPa Calm     83% 0in /  0.0mm 0 W/m2
Juneau County Weather
Compliments of Weather Underground - 2 mb